Time;durP1;ratioP1;P1;durP2;ratioP2;P2;SDS_P1;SDS_P2;PMS_P1;PMS_P2;Temp;Humidity;BMP_temperature;BMP_pressure;BME280_temperature;BME280_humidity;BME280_pressure;Samples;Min_cycle;Max_cycle;Signal;HPM_P1;HPM_P2
2023/05/13 00:02:34;;;;;;;3.03;1.93;;;9.80;99.90;;;;;;481828;243;27974;-83
2023/05/13 00:04:35;;;;;;;4.90;2.30;;;9.80;99.90;;;;;;488594;236;27974;-84
2023/05/13 00:13:13;;;;;;;2.50;2.30;;;9.70;99.90;;;;;;485728;234;28013;-81
2023/05/13 00:20:08;;;;;;;1.93;1.80;;;9.60;99.90;;;;;;469060;243;28031;-82
2023/05/13 00:22:10;;;;;;;2.20;2.10;;;9.60;99.90;;;;;;468152;252;27703;-85
2023/05/13 00:24:11;;;;;;;6.33;3.00;;;9.50;99.90;;;;;;468194;252;27959;-83
2023/05/13 00:26:12;;;;;;;2.13;2.03;;;9.50;99.90;;;;;;467436;254;27818;-85
2023/05/13 00:28:17;;;;;;;2.07;1.93;;;9.50;99.90;;;;;;466940;252;28059;-83
2023/05/13 00:30:18;;;;;;;2.43;2.23;;;9.40;99.90;;;;;;466544;255;27949;-83
2023/05/13 00:32:22;;;;;;;2.00;1.90;;;9.40;99.90;;;;;;466673;255;27789;-85
2023/05/13 00:34:23;;;;;;;2.50;2.30;;;9.40;99.90;;;;;;466706;251;27641;-82
2023/05/13 00:36:27;;;;;;;7.80;3.00;;;9.30;99.90;;;;;;466173;255;28000;-83
2023/05/13 00:41:05;;;;;;;2.00;1.90;;;9.30;99.90;;;;;;467799;249;27981;-85
2023/05/13 00:43:06;;;;;;;3.67;3.23;;;9.30;99.90;;;;;;487568;244;27984;-83
2023/05/13 00:45:07;;;;;;;4.20;3.50;;;9.20;99.90;;;;;;469826;253;28017;-84
2023/05/13 00:49:29;;;;;;;6.80;4.07;;;9.50;99.90;;;;;;483990;236;27480;-85
2023/05/13 00:51:33;;;;;;;5.30;3.70;;;9.50;99.90;;;;;;495147;239;27784;-84
2023/05/13 00:53:35;;;;;;;5.23;4.30;;;9.60;99.90;;;;;;495158;239;27854;-83
2023/05/13 00:55:38;;;;;;;6.90;3.97;;;9.60;99.90;;;;;;495154;240;27543;-84
2023/05/13 00:57:39;;;;;;;4.30;3.90;;;9.60;99.90;;;;;;496459;236;27898;-84
2023/05/13 01:01:51;;;;;;;4.53;4.20;;;9.60;99.90;;;;;;471621;244;28054;-81
2023/05/13 01:05:59;;;;;;;5.30;3.77;;;9.60;99.90;;;;;;460044;259;27975;-84
2023/05/13 01:08:01;;;;;;;4.17;3.77;;;9.60;99.90;;;;;;457902;260;27616;-84
2023/05/13 01:10:02;;;;;;;4.43;4.03;;;9.60;99.90;;;;;;471920;253;27890;-84
2023/05/13 01:12:08;;;;;;;4.30;4.00;;;9.70;99.90;;;;;;471768;249;27945;-82
2023/05/13 01:14:10;;;;;;;4.43;4.03;;;9.70;99.90;;;;;;471810;249;27614;-82
2023/05/13 01:16:12;;;;;;;4.87;4.37;;;9.70;99.90;;;;;;471463;249;28063;-83
2023/05/13 01:18:13;;;;;;;4.50;4.10;;;9.70;99.90;;;;;;471753;249;27992;-83
2023/05/13 01:22:31;;;;;;;6.03;4.50;;;9.70;99.90;;;;;;478751;249;27724;-84
2023/05/13 01:26:42;;;;;;;7.50;5.10;;;9.70;99.90;;;;;;472063;248;28021;-81
2023/05/13 01:28:44;;;;;;;6.00;5.27;;;9.70;99.90;;;;;;480704;248;27846;-82
2023/05/13 01:30:45;;;;;;;6.60;5.20;;;9.70;99.90;;;;;;481558;244;27939;-85
2023/05/13 01:32:46;;;;;;;8.93;5.20;;;9.70;99.90;;;;;;483759;246;27816;-80
2023/05/13 01:34:47;;;;;;;5.87;5.07;;;9.70;99.90;;;;;;498879;239;27903;-81
2023/05/13 01:38:59;;;;;;;5.90;5.30;;;9.70;99.90;;;;;;486217;238;27807;-84
2023/05/13 01:45:19;;;;;;;8.03;7.00;;;9.80;99.90;;;;;;488878;236;27903;-85
2023/05/13 01:47:20;;;;;;;9.10;7.10;;;9.80;99.90;;;;;;469505;249;27656;-84
2023/05/13 01:49:22;;;;;;;7.47;6.60;;;9.80;99.90;;;;;;478000;250;27822;-84
2023/05/13 01:51:26;;;;;;;10.53;6.83;;;9.70;99.90;;;;;;495744;241;27767;-83
2023/05/13 01:53:28;;;;;;;16.63;7.60;;;9.70;99.90;;;;;;495506;232;28063;-84
2023/05/13 01:55:29;;;;;;;8.80;7.70;;;9.70;99.90;;;;;;495494;232;28022;-84
2023/05/13 01:57:32;;;;;;;10.20;8.00;;;9.70;99.90;;;;;;495547;233;27892;-84
2023/05/13 01:59:33;;;;;;;8.90;8.00;;;9.60;99.90;;;;;;495511;233;27948;-83
2023/05/13 02:01:35;;;;;;;10.13;7.90;;;9.70;99.90;;;;;;492689;238;27988;-84
2023/05/13 02:03:35;;;;;;;10.73;8.80;;;9.60;99.90;;;;;;492843;242;27425;-85
2023/05/13 02:05:37;;;;;;;10.00;7.90;;;9.60;99.90;;;;;;491447;243;27747;-83
2023/05/13 02:07:40;;;;;;;10.50;8.03;;;9.60;99.90;;;;;;480793;247;27639;-82
2023/05/13 02:09:41;;;;;;;11.00;8.50;;;9.50;99.90;;;;;;487529;239;27712;-83
2023/05/13 02:11:44;;;;;;;12.57;8.90;;;9.50;99.90;;;;;;480075;247;27966;-83
2023/05/13 02:13:47;;;;;;;11.83;9.27;;;9.40;99.90;;;;;;480882;244;27922;-83
2023/05/13 02:15:47;;;;;;;10.73;9.63;;;9.40;99.90;;;;;;484107;241;27913;-83
2023/05/13 02:17:50;;;;;;;11.60;9.43;;;9.40;99.90;;;;;;480860;248;27862;-84
2023/05/13 02:19:51;;;;;;;12.47;8.90;;;9.40;99.90;;;;;;484205;246;27948;-83
2023/05/13 02:21:52;;;;;;;12.63;9.30;;;9.40;99.90;;;;;;480906;242;27912;-84
2023/05/13 02:23:53;;;;;;;12.23;9.63;;;9.30;99.90;;;;;;484250;246;27998;-83
2023/05/13 02:25:55;;;;;;;13.13;10.20;;;9.30;99.90;;;;;;480853;242;27803;-83
2023/05/13 02:27:59;;;;;;;9.83;8.83;;;9.20;99.90;;;;;;483953;246;27983;-84
2023/05/13 02:30:02;;;;;;;10.37;9.27;;;9.20;99.90;;;;;;480227;246;27673;-84
2023/05/13 02:32:04;;;;;;;10.70;9.63;;;9.20;99.90;;;;;;484256;246;27881;-83
2023/05/13 02:34:05;;;;;;;11.40;9.80;;;9.20;99.90;;;;;;484221;245;28045;-83
2023/05/13 02:36:06;;;;;;;10.83;9.70;;;9.10;99.90;;;;;;480861;247;27997;-84
2023/05/13 02:38:07;;;;;;;15.63;9.57;;;9.10;99.90;;;;;;484212;246;27898;-84
2023/05/13 02:40:09;;;;;;;13.40;10.93;;;9.10;99.90;;;;;;480441;247;27801;-82
2023/05/13 02:42:10;;;;;;;12.90;10.70;;;9.10;99.90;;;;;;484198;241;27914;-84
2023/05/13 02:44:11;;;;;;;13.57;11.43;;;9.10;99.90;;;;;;484256;246;27790;-84
2023/05/13 02:46:12;;;;;;;15.27;11.47;;;9.10;99.90;;;;;;484179;246;28014;-84
2023/05/13 02:48:14;;;;;;;14.50;12.30;;;9.10;99.90;;;;;;483735;244;27892;-82
2023/05/13 02:50:15;;;;;;;16.10;11.93;;;9.00;99.90;;;;;;483731;243;27979;-82
2023/05/13 02:52:17;;;;;;;16.57;11.70;;;9.00;99.90;;;;;;483736;241;27970;-84
2023/05/13 02:54:20;;;;;;;21.23;13.00;;;9.00;99.90;;;;;;483734;247;27549;-84
2023/05/13 02:56:22;;;;;;;15.43;11.40;;;8.90;99.90;;;;;;483763;246;27986;-84
2023/05/13 02:58:26;;;;;;;18.47;12.20;;;9.00;99.90;;;;;;483725;241;27972;-83
2023/05/13 03:00:29;;;;;;;13.77;10.37;;;9.00;99.90;;;;;;483762;241;27532;-84
2023/05/13 03:02:30;;;;;;;14.00;10.30;;;9.00;99.90;;;;;;482993;241;27939;-83
2023/05/13 03:04:32;;;;;;;13.83;10.50;;;9.00;99.90;;;;;;482697;242;27629;-83
2023/05/13 03:06:33;;;;;;;13.73;9.93;;;9.00;99.90;;;;;;482502;241;27918;-83
2023/05/13 03:08:37;;;;;;;13.07;8.93;;;8.90;99.90;;;;;;482541;241;27586;-83
2023/05/13 03:10:40;;;;;;;10.57;9.23;;;9.00;99.90;;;;;;482575;241;28197;-84
2023/05/13 03:12:42;;;;;;;11.00;8.47;;;9.00;99.90;;;;;;482526;241;27754;-85
2023/05/13 03:14:43;;;;;;;10.87;9.13;;;9.00;99.90;;;;;;482493;241;27725;-83
2023/05/13 03:16:44;;;;;;;9.23;7.80;;;9.00;99.90;;;;;;482509;241;27835;-84
2023/05/13 03:18:45;;;;;;;9.20;8.23;;;9.00;99.90;;;;;;482544;241;27818;-82
2023/05/13 03:22:57;;;;;;;10.37;8.30;;;9.00;99.90;;;;;;489474;236;28045;-81
2023/05/13 03:24:58;;;;;;;9.47;7.80;;;9.00;99.90;;;;;;488406;244;27936;-80
2023/05/13 03:27:00;;;;;;;12.13;7.00;;;9.10;99.90;;;;;;488413;244;27580;-85
2023/05/13 03:29:01;;;;;;;10.27;7.40;;;9.10;99.90;;;;;;488409;244;27819;-82
2023/05/13 03:31:02;;;;;;;8.53;6.60;;;9.10;99.90;;;;;;476660;244;28823;-82
2023/05/13 03:33:03;;;;;;;8.20;7.20;;;9.00;99.90;;;;;;472881;251;28109;-82
2023/05/13 03:35:05;;;;;;;11.07;7.73;;;9.00;99.90;;;;;;474801;250;27839;-82
2023/05/13 03:37:06;;;;;;;9.27;7.53;;;9.00;99.90;;;;;;470181;248;28168;-83
2023/05/13 03:39:07;;;;;;;9.30;8.30;;;8.90;99.90;;;;;;474819;246;27789;-81
2023/05/13 03:43:25;;;;;;;16.10;8.07;;;8.90;99.90;;;;;;483220;244;27847;-83
2023/05/13 03:45:26;;;;;;;9.93;8.43;;;8.80;99.90;;;;;;485065;246;27819;-84
2023/05/13 03:47:27;;;;;;;11.47;8.27;;;8.80;99.90;;;;;;481010;245;27939;-83
2023/05/13 03:49:29;;;;;;;11.73;8.43;;;8.80;99.90;;;;;;485946;245;28063;-83
2023/05/13 03:51:31;;;;;;;14.40;8.40;;;8.70;99.90;;;;;;485485;246;27911;-83
2023/05/13 03:53:31;;;;;;;9.47;8.47;;;8.70;99.90;;;;;;486796;245;27789;-84
2023/05/13 03:55:32;;;;;;;9.57;7.87;;;8.70;99.90;;;;;;483704;247;27897;-83
2023/05/13 03:57:34;;;;;;;13.23;7.67;;;8.80;99.90;;;;;;483765;243;27796;-83
2023/05/13 03:59:35;;;;;;;10.13;7.43;;;8.80;99.90;;;;;;483766;245;27535;-84
2023/05/13 04:01:36;;;;;;;9.20;7.80;;;8.80;99.90;;;;;;483769;246;27886;-83
2023/05/13 04:03:37;;;;;;;10.40;7.23;;;8.80;99.90;;;;;;483772;246;27893;-83
2023/05/13 04:05:39;;;;;;;10.17;7.80;;;8.80;99.90;;;;;;483766;246;27688;-86
2023/05/13 04:07:40;;;;;;;12.63;8.00;;;8.90;99.90;;;;;;483777;243;27482;-85
2023/05/13 04:09:41;;;;;;;8.13;7.00;;;8.90;99.90;;;;;;483776;246;27760;-83
2023/05/13 04:11:43;;;;;;;8.70;7.20;;;8.90;99.90;;;;;;483790;246;27878;-83
2023/05/13 04:13:44;;;;;;;7.93;7.13;;;8.80;99.90;;;;;;483792;246;27871;-83
2023/05/13 04:15:45;;;;;;;9.50;7.70;;;8.80;99.90;;;;;;483731;246;27769;-83
2023/05/13 04:17:46;;;;;;;8.20;7.30;;;8.80;99.90;;;;;;483752;243;27892;-82
2023/05/13 04:19:48;;;;;;;7.83;7.03;;;8.80;99.90;;;;;;483783;246;27998;-84
2023/05/13 04:21:49;;;;;;;10.57;7.67;;;8.70;99.90;;;;;;483781;246;27797;-83
2023/05/13 04:23:50;;;;;;;9.07;7.77;;;8.80;99.90;;;;;;483768;246;27933;-83
2023/05/13 04:25:51;;;;;;;8.80;7.90;;;8.80;99.90;;;;;;483758;245;28152;-83
2023/05/13 04:27:52;;;;;;;14.43;8.40;;;8.80;99.90;;;;;;483753;243;27729;-84
2023/05/13 04:29:54;;;;;;;9.00;8.20;;;8.90;99.90;;;;;;483753;246;27798;-83
2023/05/13 04:31:55;;;;;;;9.00;8.10;;;8.90;99.90;;;;;;483759;245;27915;-83
2023/05/13 04:33:56;;;;;;;9.87;8.17;;;8.90;99.90;;;;;;483767;247;27835;-83
2023/05/13 04:35:58;;;;;;;10.40;8.53;;;8.90;99.90;;;;;;483765;246;27834;-82
2023/05/13 04:37:59;;;;;;;13.50;8.23;;;9.00;99.90;;;;;;483370;242;27828;-83
2023/05/13 04:40:02;;;;;;;9.83;7.90;;;9.10;99.90;;;;;;483784;246;28028;-83
2023/05/13 04:42:01;;;;;;;10.50;7.27;;;9.20;99.90;;;;;;483504;245;27568;-83
2023/05/13 04:44:05;;;;;;;8.27;6.93;;;9.20;99.90;;;;;;483763;246;28114;-83
2023/05/13 04:46:04;;;;;;;7.87;7.07;;;9.30;99.90;;;;;;483663;247;27938;-84
2023/05/13 04:48:05;;;;;;;9.07;7.03;;;9.30;99.90;;;;;;483757;243;27896;-83
2023/05/13 04:50:06;;;;;;;9.50;7.70;;;9.40;99.90;;;;;;483775;245;27990;-84
2023/05/13 04:52:08;;;;;;;9.63;7.20;;;9.40;99.90;;;;;;483764;246;27916;-83
2023/05/13 04:54:09;;;;;;;10.33;6.90;;;9.50;99.90;;;;;;483736;245;27619;-83
2023/05/13 04:56:10;;;;;;;11.90;7.23;;;9.60;99.90;;;;;;483724;246;28099;-83
2023/05/13 04:58:12;;;;;;;8.97;7.20;;;9.60;99.90;;;;;;483753;243;27711;-82
2023/05/13 05:00:14;;;;;;;9.83;7.33;;;9.70;99.90;;;;;;483789;246;27543;-83
2023/05/13 05:02:15;;;;;;;9.57;8.50;;;9.80;99.90;;;;;;483772;247;27849;-84
2023/05/13 05:04:17;;;;;;;8.33;7.30;;;9.80;99.90;;;;;;483777;246;27575;-84
2023/05/13 05:06:18;;;;;;;12.80;9.87;;;9.90;99.90;;;;;;483767;245;28028;-83
2023/05/13 05:08:21;;;;;;;9.37;7.63;;;10.00;99.90;;;;;;484803;240;28058;-84
2023/05/13 05:14:43;;;;;;;10.63;7.80;;;10.00;99.90;;;;;;475775;248;27760;-81
2023/05/13 05:18:53;;;;;;;11.33;7.40;;;10.00;99.90;;;;;;473974;243;27826;-82
2023/05/13 05:20:55;;;;;;;8.47;7.57;;;9.90;99.90;;;;;;486140;233;27599;-83
2023/05/13 05:22:56;;;;;;;9.00;7.17;;;9.90;99.90;;;;;;490000;238;27806;-83
2023/05/13 05:24:57;;;;;;;8.63;7.83;;;9.90;99.90;;;;;;489977;243;27942;-82
2023/05/13 05:26:58;;;;;;;7.73;6.90;;;9.90;99.90;;;;;;490904;237;28072;-81
2023/05/13 05:29:00;;;;;;;19.10;8.30;;;9.90;99.90;;;;;;487568;245;27911;-81
2023/05/13 05:31:01;;;;;;;8.23;6.80;;;9.90;99.90;;;;;;487559;245;27962;-83
2023/05/13 05:33:02;;;;;;;9.23;6.53;;;9.90;99.90;;;;;;487574;245;27734;-82
2023/05/13 05:35:03;;;;;;;11.13;7.83;;;9.90;99.90;;;;;;487588;240;27809;-81
2023/05/13 05:37:05;;;;;;;12.37;7.70;;;9.90;99.90;;;;;;487556;245;27830;-83
2023/05/13 05:39:06;;;;;;;9.47;7.60;;;9.90;99.90;;;;;;487602;245;27775;-83
2023/05/13 05:41:07;;;;;;;7.83;6.80;;;9.90;99.90;;;;;;485060;236;28237;-83
2023/05/13 05:43:09;;;;;;;8.67;6.63;;;9.90;99.90;;;;;;479482;249;27679;-82
2023/05/13 05:45:10;;;;;;;9.77;7.37;;;9.90;99.90;;;;;;491480;240;27775;-86
2023/05/13 05:47:11;;;;;;;7.77;6.93;;;10.00;99.90;;;;;;494024;241;27799;-81
2023/05/13 05:49:12;;;;;;;9.27;7.33;;;10.10;99.90;;;;;;501382;236;27797;-82
2023/05/13 05:53:24;;;;;;;7.33;6.53;;;10.20;99.90;;;;;;483829;240;28005;-81
2023/05/13 05:57:41;;;;;;;11.10;7.00;;;10.40;99.90;;;;;;472856;242;28607;-82
2023/05/13 06:02:00;;;;;;;7.50;6.70;;;10.50;99.90;;;;;;486104;236;28113;-81
2023/05/13 06:13:07;;;;;;;8.50;6.70;;;10.80;99.90;;;;;;464085;257;28135;-85
2023/05/13 06:15:11;;;;;;;6.80;6.10;;;10.90;99.90;;;;;;461613;254;28368;-84
2023/05/13 06:17:09;;;;;;;5.67;5.17;;;10.90;99.90;;;;;;460379;255;28232;-83
2023/05/13 06:19:11;;;;;;;6.27;5.67;;;10.90;99.90;;;;;;465119;256;28189;-84
2023/05/13 06:34:48;;;;;;;5.33;4.27;;;11.30;99.90;;;;;;462643;255;28137;-84
2023/05/13 06:36:50;;;;;;;7.30;5.00;;;11.30;99.90;;;;;;468219;253;28211;-85
2023/05/13 06:38:51;;;;;;;5.40;4.90;;;11.30;99.90;;;;;;467153;250;28195;-84
2023/05/13 06:40:52;;;;;;;4.47;4.10;;;11.40;99.90;;;;;;471039;251;27907;-84
2023/05/13 06:42:53;;;;;;;5.00;3.70;;;11.50;99.90;;;;;;470992;253;28108;-84
2023/05/13 06:44:55;;;;;;;4.77;4.37;;;11.50;99.90;;;;;;470870;253;28041;-83
2023/05/13 06:46:56;;;;;;;5.37;4.40;;;11.50;99.90;;;;;;477255;238;28400;-79
2023/05/13 06:48:57;;;;;;;6.57;4.83;;;11.50;99.90;;;;;;482348;235;28440;-83
2023/05/13 06:50:58;;;;;;;5.80;4.50;;;11.60;99.90;;;;;;454145;262;28620;-82
2023/05/13 06:53:00;;;;;;;5.53;4.57;;;11.60;99.90;;;;;;459753;259;28331;-82
2023/05/13 06:55:01;;;;;;;6.63;5.03;;;11.60;99.90;;;;;;459788;259;28220;-83
2023/05/13 06:57:06;;;;;;;6.50;4.57;;;11.60;99.90;;;;;;459791;258;28324;-83
2023/05/13 06:59:04;;;;;;;6.57;4.90;;;11.80;99.90;;;;;;467307;246;29470;-84
2023/05/13 07:01:05;;;;;;;4.60;4.23;;;11.80;99.90;;;;;;470513;251;28191;-84
2023/05/13 07:03:06;;;;;;;7.87;4.50;;;11.90;99.90;;;;;;476140;250;28123;-84
2023/05/13 07:09:32;;;;;;;4.80;4.30;;;12.00;99.90;;;;;;476798;245;28478;-86
2023/05/13 07:11:33;;;;;;;4.20;3.80;;;;;;;;;;472401;243;28079;-84
2023/05/13 07:15:46;;;;;;;5.30;4.00;;;12.30;99.90;;;;;;489704;242;28514;-84
2023/05/13 07:24:09;;;;;;;5.13;3.60;;;12.50;99.90;;;;;;472984;248;29362;-81
2023/05/13 07:26:10;;;;;;;3.70;3.40;;;12.50;99.90;;;;;;472938;251;27980;-81
2023/05/13 07:28:11;;;;;;;3.90;3.57;;;12.50;99.90;;;;;;473584;244;27989;-82
2023/05/13 07:30:12;;;;;;;5.13;3.73;;;12.50;99.90;;;;;;488843;244;28044;-80
2023/05/13 07:34:15;;;;;;;3.70;3.40;;;12.70;99.90;;;;;;473752;244;28561;-84
2023/05/13 07:36:16;;;;;;;4.90;3.40;;;12.80;99.90;;;;;;476135;241;28354;-80
2023/05/13 07:38:19;;;;;;;3.43;3.17;;;;;;;;;;484995;246;28200;-86
2023/05/13 07:40:20;;;;;;;6.20;3.57;;;12.90;99.90;;;;;;483641;238;26490;-83
2023/05/13 07:42:21;;;;;;;5.33;3.30;;;13.00;99.90;;;;;;480578;248;28355;-82
2023/05/13 07:44:24;;;;;;;3.57;3.27;;;;;;;;;;480665;245;28691;-85
2023/05/13 07:46:25;;;;;;;5.67;3.57;;;12.90;99.90;;;;;;489923;240;26581;-81
2023/05/13 07:48:27;;;;;;;3.30;3.10;;;13.10;99.90;;;;;;496868;239;28258;-82
2023/05/13 07:50:28;;;;;;;7.53;3.50;;;13.20;99.90;;;;;;496863;239;28074;-83
2023/05/13 07:52:29;;;;;;;5.33;3.37;;;13.20;99.90;;;;;;496854;239;28270;-83
2023/05/13 07:54:30;;;;;;;3.77;3.40;;;13.10;99.90;;;;;;496794;240;28333;-82
2023/05/13 07:56:32;;;;;;;5.97;3.37;;;;;;;;;;496820;240;28051;-86
2023/05/13 07:58:34;;;;;;;3.57;3.27;;;13.10;99.90;;;;;;496844;240;26364;-84
2023/05/13 08:00:35;;;;;;;3.47;3.17;;;13.20;99.90;;;;;;493926;236;28514;-81
2023/05/13 08:02:37;;;;;;;5.63;3.80;;;13.30;99.90;;;;;;478457;249;28156;-80
2023/05/13 08:04:37;;;;;;;5.13;3.00;;;13.50;99.90;;;;;;483917;246;28323;-83
2023/05/13 08:06:39;;;;;;;4.00;3.30;;;13.50;99.90;;;;;;485828;245;28297;-82
2023/05/13 08:08:40;;;;;;;6.50;3.50;;;13.50;99.90;;;;;;485777;243;28413;-81
2023/05/13 08:10:41;;;;;;;5.87;3.77;;;13.60;99.90;;;;;;485804;243;28527;-80
2023/05/13 08:12:43;;;;;;;5.27;3.40;;;13.60;99.90;;;;;;485798;245;28745;-80
2023/05/13 08:14:44;;;;;;;5.67;2.90;;;13.60;99.90;;;;;;485750;243;28694;-81
2023/05/13 08:16:45;;;;;;;5.17;3.20;;;13.60;99.90;;;;;;485798;244;28901;-83
2023/05/13 08:18:46;;;;;;;3.40;3.10;;;13.60;99.90;;;;;;485819;243;28246;-82
2023/05/13 08:20:47;;;;;;;7.33;3.13;;;13.60;99.90;;;;;;485827;243;28276;-81
2023/05/13 08:22:49;;;;;;;5.57;3.33;;;13.70;99.90;;;;;;485739;245;28407;-84
2023/05/13 08:24:50;;;;;;;4.83;3.33;;;13.80;99.90;;;;;;485690;245;28299;-82
2023/05/13 08:26:51;;;;;;;3.20;2.87;;;13.80;99.90;;;;;;485750;245;28240;-81
2023/05/13 08:28:52;;;;;;;4.20;3.10;;;13.80;99.90;;;;;;485815;244;28221;-83
2023/05/13 08:30:54;;;;;;;4.60;3.20;;;14.00;99.90;;;;;;485781;245;28315;-81
2023/05/13 08:32:55;;;;;;;5.40;3.03;;;14.00;99.90;;;;;;485844;245;28205;-83
2023/05/13 08:34:56;;;;;;;3.13;2.83;;;14.10;99.90;;;;;;485703;245;28328;-83
2023/05/13 08:36:57;;;;;;;3.40;3.20;;;14.20;99.90;;;;;;485673;245;28908;-83
2023/05/13 08:39:00;;;;;;;4.17;3.30;;;14.10;99.90;;;;;;485712;245;29057;-83
2023/05/13 08:41:00;;;;;;;3.93;3.10;;;14.20;99.90;;;;;;485610;245;28972;-82
2023/05/13 08:43:01;;;;;;;4.00;3.10;;;14.20;99.90;;;;;;485644;245;28381;-83
2023/05/13 08:45:03;;;;;;;4.00;3.20;;;14.20;99.90;;;;;;485605;244;28428;-84
2023/05/13 08:47:04;;;;;;;3.07;2.87;;;14.30;99.90;;;;;;485402;245;28548;-81
2023/05/13 08:49:05;;;;;;;7.07;3.27;;;14.40;99.90;;;;;;485480;245;28255;-83
2023/05/13 08:51:06;;;;;;;5.30;3.00;;;14.50;99.90;;;;;;485436;245;28219;-83
2023/05/13 08:53:07;;;;;;;4.50;3.10;;;14.50;99.90;;;;;;485349;245;28656;-83
2023/05/13 08:55:09;;;;;;;3.97;3.60;;;14.50;99.90;;;;;;485283;245;28239;-83
2023/05/13 08:57:10;;;;;;;4.20;2.90;;;14.60;99.90;;;;;;485296;245;28335;-83
2023/05/13 08:59:11;;;;;;;5.47;3.47;;;14.60;99.90;;;;;;485293;245;28448;-85
2023/05/13 09:01:12;;;;;;;4.60;3.40;;;14.60;99.90;;;;;;485274;245;28780;-85
2023/05/13 09:03:14;;;;;;;3.83;2.67;;;14.60;99.90;;;;;;485138;245;28983;-83
2023/05/13 09:05:15;;;;;;;3.63;3.30;;;14.70;99.90;;;;;;485024;245;29309;-86
2023/05/13 09:07:16;;;;;;;4.23;3.10;;;14.80;99.90;;;;;;485167;245;28444;-85
2023/05/13 09:09:18;;;;;;;3.37;2.90;;;14.70;99.90;;;;;;485126;245;28517;-85
2023/05/13 09:11:19;;;;;;;3.80;3.43;;;14.60;99.90;;;;;;485124;245;28473;-85
2023/05/13 09:13:20;;;;;;;3.27;3.00;;;14.80;99.90;;;;;;485104;245;28624;-82
2023/05/13 09:15:21;;;;;;;3.57;2.80;;;14.90;99.90;;;;;;485116;245;28546;-86
2023/05/13 09:17:22;;;;;;;3.90;3.47;;;14.90;99.90;;;;;;485126;245;28863;-84
2023/05/13 09:19:24;;;;;;;3.43;3.13;;;15.00;99.90;;;;;;485090;245;28773;-86
2023/05/13 09:21:25;;;;;;;3.33;2.97;;;15.00;99.90;;;;;;485154;245;28518;-84
2023/05/13 09:23:26;;;;;;;6.57;2.87;;;15.00;99.90;;;;;;485210;245;28986;-82
2023/05/13 09:25:27;;;;;;;5.53;3.13;;;15.10;99.90;;;;;;485156;245;28851;-85
2023/05/13 09:27:29;;;;;;;3.13;2.80;;;15.00;99.90;;;;;;485207;245;29394;-82
2023/05/13 09:29:30;;;;;;;3.40;3.10;;;15.10;99.90;;;;;;485122;245;29300;-82
2023/05/13 09:31:31;;;;;;;4.17;3.00;;;15.30;99.90;;;;;;485263;245;29324;-85
2023/05/13 09:33:32;;;;;;;4.53;3.30;;;15.20;99.90;;;;;;484768;245;30708;-83
2023/05/13 09:35:34;;;;;;;4.03;2.60;;;15.30;99.90;;;;;;484949;245;27496;-86
2023/05/13 09:37:35;;;;;;;5.87;3.00;;;15.30;99.90;;;;;;485040;245;28840;-84
2023/05/13 09:39:36;;;;;;;3.30;2.90;;;15.40;99.90;;;;;;484952;245;28768;-84
2023/05/13 09:41:38;;;;;;;3.50;2.73;;;15.30;99.90;;;;;;484968;245;28788;-84
2023/05/13 09:43:39;;;;;;;3.20;2.90;;;15.30;99.90;;;;;;484921;245;28812;-84
2023/05/13 09:45:40;;;;;;;4.83;3.10;;;15.40;99.90;;;;;;484792;245;28939;-84
2023/05/13 09:47:41;;;;;;;4.13;3.13;;;15.50;99.90;;;;;;484712;245;28896;-84
2023/05/13 09:49:42;;;;;;;5.70;3.00;;;15.60;99.90;;;;;;484711;245;28773;-82
2023/05/13 09:51:44;;;;;;;3.33;3.03;;;15.60;99.90;;;;;;484722;245;29269;-84
2023/05/13 09:53:45;;;;;;;4.80;3.23;;;15.70;99.90;;;;;;484727;245;29386;-81
2023/05/13 09:55:46;;;;;;;2.97;2.77;;;15.50;99.90;;;;;;484727;245;29217;-84
2023/05/13 09:57:47;;;;;;;6.10;3.27;;;15.50;99.30;;;;;;484762;245;28744;-84
2023/05/13 09:59:49;;;;;;;6.13;3.10;;;15.50;99.90;;;;;;484751;245;28781;-82
2023/05/13 10:01:52;;;;;;;6.30;3.40;;;15.90;99.90;;;;;;484806;245;28851;-84
2023/05/13 10:03:51;;;;;;;3.37;3.07;;;15.80;99.20;;;;;;484676;245;28780;-84
2023/05/13 10:05:54;;;;;;;4.87;3.20;;;15.80;99.80;;;;;;484648;245;28832;-84
2023/05/13 10:07:54;;;;;;;3.10;2.90;;;16.10;99.90;;;;;;484677;245;28789;-85
2023/05/13 10:09:55;;;;;;;5.20;3.23;;;16.00;99.50;;;;;;484696;245;28775;-83
2023/05/13 10:11:56;;;;;;;6.87;2.93;;;16.20;99.30;;;;;;484689;245;28766;-86
2023/05/13 10:13:57;;;;;;;2.70;2.50;;;16.30;99.90;;;;;;484693;245;28764;-83
2023/05/13 10:15:59;;;;;;;3.50;3.20;;;16.40;99.70;;;;;;484719;245;29227;-85
2023/05/13 10:18:00;;;;;;;5.63;2.93;;;16.30;99.90;;;;;;484738;245;29300;-84
2023/05/13 10:20:02;;;;;;;3.60;3.30;;;16.20;98.30;;;;;;484727;245;29351;-82
2023/05/13 10:22:03;;;;;;;3.60;3.17;;;16.20;97.70;;;;;;484679;245;28750;-84
2023/05/13 10:24:04;;;;;;;7.53;2.77;;;16.10;97.50;;;;;;484671;245;28762;-83
2023/05/13 10:26:05;;;;;;;4.57;3.37;;;16.50;97.80;;;;;;484685;245;28749;-85
2023/05/13 10:28:06;;;;;;;6.53;3.67;;;16.30;97.20;;;;;;484744;244;28766;-84
2023/05/13 10:30:09;;;;;;;3.63;3.13;;;16.20;96.80;;;;;;484743;245;28868;-82
2023/05/13 10:32:09;;;;;;;4.67;2.87;;;16.40;97.30;;;;;;484576;245;28763;-84
2023/05/13 10:34:10;;;;;;;3.73;3.27;;;16.50;98.30;;;;;;484736;245;28776;-84
2023/05/13 10:36:11;;;;;;;5.10;3.20;;;16.60;97.40;;;;;;484722;245;28824;-84
2023/05/13 10:38:13;;;;;;;8.17;3.10;;;16.70;97.70;;;;;;484721;245;28858;-85
2023/05/13 10:40:14;;;;;;;4.73;3.50;;;16.80;96.10;;;;;;484722;245;28853;-82
2023/05/13 10:42:15;;;;;;;3.40;3.10;;;16.90;97.30;;;;;;484712;245;29230;-83
2023/05/13 10:44:16;;;;;;;4.67;3.50;;;17.10;96.90;;;;;;484706;245;29328;-85
2023/05/13 10:46:18;;;;;;;5.80;2.90;;;17.10;96.70;;;;;;484651;245;28873;-84
2023/05/13 10:48:19;;;;;;;3.57;3.23;;;17.20;97.50;;;;;;484662;245;28776;-84
2023/05/13 10:50:20;;;;;;;3.90;2.90;;;17.50;99.60;;;;;;484642;245;28768;-82
2023/05/13 10:52:21;;;;;;;6.33;3.00;;;17.70;97.40;;;;;;484763;245;28844;-84
2023/05/13 10:54:26;;;;;;;3.47;2.93;;;17.80;96.10;;;;;;484653;245;28840;-83
2023/05/13 10:56:24;;;;;;;3.30;3.00;;;17.70;94.10;;;;;;484545;245;28776;-84
2023/05/13 10:58:25;;;;;;;6.97;3.77;;;17.80;95.70;;;;;;484659;245;28760;-84
2023/05/13 11:00:26;;;;;;;3.47;3.20;;;18.10;95.40;;;;;;484684;245;28782;-82
2023/05/13 11:02:28;;;;;;;5.13;3.00;;;18.10;94.20;;;;;;484726;245;28757;-84
2023/05/13 11:04:29;;;;;;;3.60;3.20;;;18.10;94.90;;;;;;484743;245;28834;-83
2023/05/13 11:06:31;;;;;;;3.30;3.00;;;17.70;94.00;;;;;;484764;245;29325;-83
2023/05/13 11:08:31;;;;;;;3.93;3.07;;;17.40;93.40;;;;;;484751;245;29212;-84
2023/05/13 11:10:33;;;;;;;4.00;2.83;;;17.50;94.40;;;;;;484827;245;29232;-83
2023/05/13 11:12:34;;;;;;;4.03;3.00;;;17.30;94.30;;;;;;484869;245;28753;-84
2023/05/13 11:14:35;;;;;;;3.40;3.10;;;17.10;93.80;;;;;;484813;245;28757;-84
2023/05/13 11:16:36;;;;;;;5.03;3.37;;;17.20;94.10;;;;;;484821;245;28854;-83
2023/05/13 11:18:38;;;;;;;3.63;3.33;;;17.20;93.00;;;;;;484796;245;28761;-84
2023/05/13 11:20:39;;;;;;;5.60;3.30;;;17.30;92.50;;;;;;484820;244;28852;-82
2023/05/13 11:22:40;;;;;;;3.10;2.90;;;17.60;92.40;;;;;;484873;245;28826;-84
2023/05/13 11:24:41;;;;;;;7.63;3.57;;;17.60;91.50;;;;;;484786;245;28826;-83
2023/05/13 11:26:43;;;;;;;5.80;3.70;;;17.70;91.80;;;;;;484719;245;28770;-82
2023/05/13 11:28:44;;;;;;;5.03;3.50;;;18.00;92.00;;;;;;484732;245;28761;-82
2023/05/13 11:30:45;;;;;;;4.90;3.40;;;18.00;91.80;;;;;;484717;245;29297;-83
2023/05/13 11:32:46;;;;;;;6.53;3.00;;;18.40;91.80;;;;;;484737;245;29230;-83
2023/05/13 11:34:48;;;;;;;3.10;2.80;;;18.30;90.80;;;;;;484714;245;29242;-83
2023/05/13 11:36:49;;;;;;;4.33;3.73;;;18.10;90.40;;;;;;484784;245;28763;-83
2023/05/13 11:38:50;;;;;;;3.47;3.17;;;18.00;91.20;;;;;;484855;245;28848;-84
2023/05/13 11:40:51;;;;;;;3.33;3.03;;;17.70;92.00;;;;;;484843;245;28765;-83
2023/05/13 11:42:53;;;;;;;4.00;3.30;;;17.40;90.90;;;;;;484896;245;28772;-84
2023/05/13 11:44:54;;;;;;;4.77;3.20;;;17.20;91.90;;;;;;484904;245;28808;-84
2023/05/13 11:46:55;;;;;;;3.53;3.30;;;17.10;92.10;;;;;;484881;245;28761;-82
2023/05/13 11:48:56;;;;;;;6.37;3.57;;;17.40;92.40;;;;;;484824;245;28749;-85
2023/05/13 11:50:58;;;;;;;3.57;3.27;;;17.40;90.80;;;;;;484912;245;28776;-84
2023/05/13 11:52:59;;;;;;;4.33;3.50;;;17.40;91.20;;;;;;484913;245;28872;-84
2023/05/13 11:55:00;;;;;;;3.80;3.03;;;17.50;90.60;;;;;;484881;245;29209;-83
2023/05/13 11:57:01;;;;;;;5.07;3.60;;;17.60;91.60;;;;;;484997;245;29300;-84
2023/05/13 11:59:03;;;;;;;3.50;3.20;;;17.40;90.10;;;;;;484958;245;29335;-84
2023/05/13 12:01:04;;;;;;;3.90;3.20;;;17.30;90.70;;;;;;485027;245;28853;-83
2023/05/13 12:03:05;;;;;;;4.87;4.03;;;17.30;91.50;;;;;;484957;245;28746;-84